sensor_id;sensor_type;location;lat;lon;timestamp;temperature;humidity
17813;DHT22;9030;50.792;8.320;2022-09-09T00:00:47;12.20;99.90
17813;DHT22;9030;50.792;8.320;2022-09-09T00:03:21;12.20;99.90
17813;DHT22;9030;50.792;8.320;2022-09-09T00:05:55;12.10;99.90
17813;DHT22;9030;50.792;8.320;2022-09-09T00:08:31;12.10;99.90
17813;DHT22;9030;50.792;8.320;2022-09-09T00:11:03;12.10;99.90
17813;DHT22;9030;50.792;8.320;2022-09-09T00:13:35;12.10;99.90
17813;DHT22;9030;50.792;8.320;2022-09-09T00:16:08;12.10;99.90
17813;DHT22;9030;50.792;8.320;2022-09-09T00:18:49;12.00;99.90
17813;DHT22;9030;50.792;8.320;2022-09-09T00:21:18;12.00;99.90
17813;DHT22;9030;50.792;8.320;2022-09-09T00:23:50;11.90;99.90
17813;DHT22;9030;50.792;8.320;2022-09-09T00:26:24;11.90;99.90
17813;DHT22;9030;50.792;8.320;2022-09-09T00:29:02;11.90;99.90
17813;DHT22;9030;50.792;8.320;2022-09-09T00:31:31;11.90;99.90
17813;DHT22;9030;50.792;8.320;2022-09-09T00:34:03;11.80;99.90
17813;DHT22;9030;50.792;8.320;2022-09-09T00:36:35;11.90;99.90
17813;DHT22;9030;50.792;8.320;2022-09-09T00:39:03;12.00;99.90
17813;DHT22;9030;50.792;8.320;2022-09-09T00:41:40;11.70;99.90
17813;DHT22;9030;50.792;8.320;2022-09-09T00:44:21;11.80;99.90
17813;DHT22;9030;50.792;8.320;2022-09-09T00:46:59;11.80;99.90
17813;DHT22;9030;50.792;8.320;2022-09-09T00:49:42;11.80;99.90
17813;DHT22;9030;50.792;8.320;2022-09-09T00:52:23;11.70;99.90
17813;DHT22;9030;50.792;8.320;2022-09-09T00:54:57;11.60;99.90
17813;DHT22;9030;50.792;8.320;2022-09-09T00:57:29;11.60;99.90
17813;DHT22;9030;50.792;8.320;2022-09-09T01:00:14;11.60;99.90
17813;DHT22;9030;50.792;8.320;2022-09-09T01:02:49;11.50;99.90
17813;DHT22;9030;50.792;8.320;2022-09-09T01:05:23;11.40;99.90
17813;DHT22;9030;50.792;8.320;2022-09-09T01:07:53;11.50;99.90
17813;DHT22;9030;50.792;8.320;2022-09-09T01:10:26;11.50;99.90
17813;DHT22;9030;50.792;8.320;2022-09-09T01:12:56;11.50;99.90
17813;DHT22;9030;50.792;8.320;2022-09-09T01:15:28;11.50;99.90
17813;DHT22;9030;50.792;8.320;2022-09-09T01:18:00;11.50;99.90
17813;DHT22;9030;50.792;8.320;2022-09-09T01:20:33;11.60;99.90
17813;DHT22;9030;50.792;8.320;2022-09-09T01:23:30;11.50;99.90
17813;DHT22;9030;50.792;8.320;2022-09-09T01:26:14;11.50;99.90
17813;DHT22;9030;50.792;8.320;2022-09-09T01:28:43;11.60;99.90
17813;DHT22;9030;50.792;8.320;2022-09-09T01:31:14;11.50;99.90
17813;DHT22;9030;50.792;8.320;2022-09-09T01:33:41;11.40;99.90
17813;DHT22;9030;50.792;8.320;2022-09-09T01:36:12;11.50;99.90
17813;DHT22;9030;50.792;8.320;2022-09-09T01:38:40;11.60;99.90
17813;DHT22;9030;50.792;8.320;2022-09-09T01:41:08;11.50;99.90
17813;DHT22;9030;50.792;8.320;2022-09-09T01:43:35;11.60;99.90
17813;DHT22;9030;50.792;8.320;2022-09-09T01:46:02;11.60;99.90
17813;DHT22;9030;50.792;8.320;2022-09-09T01:48:30;11.60;99.90
17813;DHT22;9030;50.792;8.320;2022-09-09T01:50:57;11.50;99.90
17813;DHT22;9030;50.792;8.320;2022-09-09T01:53:24;11.40;99.90
17813;DHT22;9030;50.792;8.320;2022-09-09T01:56:03;11.40;99.90
17813;DHT22;9030;50.792;8.320;2022-09-09T01:58:44;11.40;99.90
17813;DHT22;9030;50.792;8.320;2022-09-09T02:01:20;11.50;99.90
17813;DHT22;9030;50.792;8.320;2022-09-09T02:03:52;11.40;99.90
17813;DHT22;9030;50.792;8.320;2022-09-09T02:06:26;11.40;99.90
17813;DHT22;9030;50.792;8.320;2022-09-09T02:08:56;11.40;99.90
17813;DHT22;9030;50.792;8.320;2022-09-09T02:11:25;11.60;99.90
17813;DHT22;9030;50.792;8.320;2022-09-09T02:13:56;11.40;99.90
17813;DHT22;9030;50.792;8.320;2022-09-09T02:16:27;11.60;99.90
17813;DHT22;9030;50.792;8.320;2022-09-09T02:19:00;11.70;99.90
17813;DHT22;9030;50.792;8.320;2022-09-09T02:21:29;11.90;99.90
17813;DHT22;9030;50.792;8.320;2022-09-09T02:23:59;11.90;99.90
17813;DHT22;9030;50.792;8.320;2022-09-09T02:26:31;11.80;99.90
17813;DHT22;9030;50.792;8.320;2022-09-09T02:29:02;11.80;99.90
17813;DHT22;9030;50.792;8.320;2022-09-09T02:31:30;11.80;99.90
17813;DHT22;9030;50.792;8.320;2022-09-09T02:34:01;11.90;99.90
17813;DHT22;9030;50.792;8.320;2022-09-09T02:36:32;12.00;99.90
17813;DHT22;9030;50.792;8.320;2022-09-09T02:39:01;12.00;99.90
17813;DHT22;9030;50.792;8.320;2022-09-09T02:41:32;11.80;99.90
17813;DHT22;9030;50.792;8.320;2022-09-09T02:44:02;11.70;99.90
17813;DHT22;9030;50.792;8.320;2022-09-09T02:46:58;11.60;99.90
17813;DHT22;9030;50.792;8.320;2022-09-09T02:49:33;11.70;99.90
17813;DHT22;9030;50.792;8.320;2022-09-09T02:52:04;11.60;99.90
17813;DHT22;9030;50.792;8.320;2022-09-09T02:54:33;11.70;99.90
17813;DHT22;9030;50.792;8.320;2022-09-09T02:57:04;11.80;99.90
17813;DHT22;9030;50.792;8.320;2022-09-09T02:59:34;11.90;99.90
17813;DHT22;9030;50.792;8.320;2022-09-09T03:02:01;11.90;99.90
17813;DHT22;9030;50.792;8.320;2022-09-09T03:04:28;12.00;99.90
17813;DHT22;9030;50.792;8.320;2022-09-09T03:06:56;12.10;99.90
17813;DHT22;9030;50.792;8.320;2022-09-09T03:09:23;12.10;99.90
17813;DHT22;9030;50.792;8.320;2022-09-09T03:11:51;12.40;99.90
17813;DHT22;9030;50.792;8.320;2022-09-09T03:14:18;12.60;99.90
17813;DHT22;9030;50.792;8.320;2022-09-09T03:16:48;12.80;99.90
17813;DHT22;9030;50.792;8.320;2022-09-09T03:19:14;12.60;99.90
17813;DHT22;9030;50.792;8.320;2022-09-09T03:21:41;12.70;99.90
17813;DHT22;9030;50.792;8.320;2022-09-09T03:24:08;12.60;99.90
17813;DHT22;9030;50.792;8.320;2022-09-09T03:26:35;12.80;99.90
17813;DHT22;9030;50.792;8.320;2022-09-09T03:29:03;12.80;99.90
17813;DHT22;9030;50.792;8.320;2022-09-09T03:31:31;12.70;99.90
17813;DHT22;9030;50.792;8.320;2022-09-09T03:34:00;12.80;99.90
17813;DHT22;9030;50.792;8.320;2022-09-09T03:36:27;12.80;99.90
17813;DHT22;9030;50.792;8.320;2022-09-09T03:38:54;13.40;99.90
17813;DHT22;9030;50.792;8.320;2022-09-09T03:41:22;13.00;99.90
17813;DHT22;9030;50.792;8.320;2022-09-09T03:43:49;13.20;99.90
17813;DHT22;9030;50.792;8.320;2022-09-09T03:46:16;13.10;99.90
17813;DHT22;9030;50.792;8.320;2022-09-09T03:48:43;13.00;99.90
17813;DHT22;9030;50.792;8.320;2022-09-09T03:51:11;13.00;99.90
17813;DHT22;9030;50.792;8.320;2022-09-09T03:53:38;13.50;99.90
17813;DHT22;9030;50.792;8.320;2022-09-09T03:56:05;12.80;99.90
17813;DHT22;9030;50.792;8.320;2022-09-09T03:58:33;12.80;99.90
17813;DHT22;9030;50.792;8.320;2022-09-09T04:01:02;12.90;99.90
17813;DHT22;9030;50.792;8.320;2022-09-09T04:03:30;12.80;99.90
17813;DHT22;9030;50.792;8.320;2022-09-09T04:05:59;12.80;99.90
17813;DHT22;9030;50.792;8.320;2022-09-09T04:08:29;12.80;99.90
17813;DHT22;9030;50.792;8.320;2022-09-09T04:10:56;12.80;99.90
17813;DHT22;9030;50.792;8.320;2022-09-09T04:13:24;12.80;99.90
17813;DHT22;9030;50.792;8.320;2022-09-09T04:15:53;13.50;99.90
17813;DHT22;9030;50.792;8.320;2022-09-09T04:18:20;12.80;99.90
17813;DHT22;9030;50.792;8.320;2022-09-09T04:20:47;12.80;99.90
17813;DHT22;9030;50.792;8.320;2022-09-09T04:23:14;12.90;99.90
17813;DHT22;9030;50.792;8.320;2022-09-09T04:25:45;13.00;99.90
17813;DHT22;9030;50.792;8.320;2022-09-09T04:28:12;13.00;99.90
17813;DHT22;9030;50.792;8.320;2022-09-09T04:30:39;13.00;99.90
17813;DHT22;9030;50.792;8.320;2022-09-09T04:33:06;12.90;99.90
17813;DHT22;9030;50.792;8.320;2022-09-09T04:35:33;13.10;99.90
17813;DHT22;9030;50.792;8.320;2022-09-09T04:38:00;13.00;99.90
17813;DHT22;9030;50.792;8.320;2022-09-09T04:40:28;13.20;99.90
17813;DHT22;9030;50.792;8.320;2022-09-09T04:42:57;13.10;99.90
17813;DHT22;9030;50.792;8.320;2022-09-09T04:45:24;13.10;99.90
17813;DHT22;9030;50.792;8.320;2022-09-09T04:47:51;13.00;99.90
17813;DHT22;9030;50.792;8.320;2022-09-09T04:50:20;13.10;99.90
17813;DHT22;9030;50.792;8.320;2022-09-09T04:52:47;13.10;99.90
17813;DHT22;9030;50.792;8.320;2022-09-09T04:55:14;13.10;99.90
17813;DHT22;9030;50.792;8.320;2022-09-09T04:57:41;13.10;99.90
17813;DHT22;9030;50.792;8.320;2022-09-09T05:00:10;13.10;99.90
17813;DHT22;9030;50.792;8.320;2022-09-09T05:02:41;13.20;99.90
17813;DHT22;9030;50.792;8.320;2022-09-09T05:05:08;13.10;99.90
17813;DHT22;9030;50.792;8.320;2022-09-09T05:07:36;13.20;99.90
17813;DHT22;9030;50.792;8.320;2022-09-09T05:10:04;13.30;99.90
17813;DHT22;9030;50.792;8.320;2022-09-09T05:12:31;13.40;99.90
17813;DHT22;9030;50.792;8.320;2022-09-09T05:14:58;13.40;99.90
17813;DHT22;9030;50.792;8.320;2022-09-09T05:17:26;13.50;99.90
17813;DHT22;9030;50.792;8.320;2022-09-09T05:19:53;13.60;99.90
17813;DHT22;9030;50.792;8.320;2022-09-09T05:22:20;13.60;99.90
17813;DHT22;9030;50.792;8.320;2022-09-09T05:24:48;13.70;99.90
17813;DHT22;9030;50.792;8.320;2022-09-09T05:27:16;13.80;99.90
17813;DHT22;9030;50.792;8.320;2022-09-09T05:29:45;13.90;99.90
17813;DHT22;9030;50.792;8.320;2022-09-09T05:32:12;13.90;99.90
17813;DHT22;9030;50.792;8.320;2022-09-09T05:34:41;13.80;99.90
17813;DHT22;9030;50.792;8.320;2022-09-09T05:37:08;13.80;99.90
17813;DHT22;9030;50.792;8.320;2022-09-09T05:39:35;13.70;99.90
17813;DHT22;9030;50.792;8.320;2022-09-09T05:42:03;13.80;99.90
17813;DHT22;9030;50.792;8.320;2022-09-09T05:44:30;13.80;99.90
17813;DHT22;9030;50.792;8.320;2022-09-09T05:46:57;13.80;99.90
17813;DHT22;9030;50.792;8.320;2022-09-09T05:49:24;13.80;99.90
17813;DHT22;9030;50.792;8.320;2022-09-09T05:51:52;13.90;99.90
17813;DHT22;9030;50.792;8.320;2022-09-09T05:54:19;13.90;99.90
17813;DHT22;9030;50.792;8.320;2022-09-09T05:56:46;14.00;99.90
17813;DHT22;9030;50.792;8.320;2022-09-09T05:59:14;14.00;99.90
17813;DHT22;9030;50.792;8.320;2022-09-09T06:01:41;14.00;99.90
17813;DHT22;9030;50.792;8.320;2022-09-09T06:04:08;13.90;99.90
17813;DHT22;9030;50.792;8.320;2022-09-09T06:06:36;14.10;99.90
17813;DHT22;9030;50.792;8.320;2022-09-09T06:09:08;14.10;99.90
17813;DHT22;9030;50.792;8.320;2022-09-09T06:11:37;14.20;99.90
17813;DHT22;9030;50.792;8.320;2022-09-09T06:14:04;14.20;99.90
17813;DHT22;9030;50.792;8.320;2022-09-09T06:16:32;14.60;99.90
17813;DHT22;9030;50.792;8.320;2022-09-09T06:18:59;14.90;99.90
17813;DHT22;9030;50.792;8.320;2022-09-09T06:21:27;14.70;99.90
17813;DHT22;9030;50.792;8.320;2022-09-09T06:23:55;14.70;99.90
17813;DHT22;9030;50.792;8.320;2022-09-09T06:26:25;14.70;99.90
17813;DHT22;9030;50.792;8.320;2022-09-09T06:28:54;14.80;99.90
17813;DHT22;9030;50.792;8.320;2022-09-09T06:31:22;14.90;99.90
17813;DHT22;9030;50.792;8.320;2022-09-09T06:33:50;14.90;99.90
17813;DHT22;9030;50.792;8.320;2022-09-09T06:36:19;15.10;99.90
17813;DHT22;9030;50.792;8.320;2022-09-09T06:38:46;15.50;99.90
17813;DHT22;9030;50.792;8.320;2022-09-09T06:41:14;15.70;99.90
17813;DHT22;9030;50.792;8.320;2022-09-09T06:43:43;16.10;99.90
17813;DHT22;9030;50.792;8.320;2022-09-09T06:46:12;16.60;99.90
17813;DHT22;9030;50.792;8.320;2022-09-09T06:48:39;16.70;99.90
17813;DHT22;9030;50.792;8.320;2022-09-09T06:51:10;16.50;99.90
17813;DHT22;9030;50.792;8.320;2022-09-09T06:53:39;16.50;99.90
17813;DHT22;9030;50.792;8.320;2022-09-09T06:56:18;16.30;99.90
17813;DHT22;9030;50.792;8.320;2022-09-09T06:58:47;16.20;99.90
17813;DHT22;9030;50.792;8.320;2022-09-09T07:01:16;16.20;99.90
17813;DHT22;9030;50.792;8.320;2022-09-09T07:03:46;16.10;99.90
17813;DHT22;9030;50.792;8.320;2022-09-09T07:06:14;16.10;99.90
17813;DHT22;9030;50.792;8.320;2022-09-09T07:08:42;15.90;99.90
17813;DHT22;9030;50.792;8.320;2022-09-09T07:11:09;15.90;99.90
17813;DHT22;9030;50.792;8.320;2022-09-09T07:13:36;15.80;99.90
17813;DHT22;9030;50.792;8.320;2022-09-09T07:16:06;15.80;99.90
17813;DHT22;9030;50.792;8.320;2022-09-09T07:18:33;16.10;99.90
17813;DHT22;9030;50.792;8.320;2022-09-09T07:21:00;16.40;99.90
17813;DHT22;9030;50.792;8.320;2022-09-09T07:23:28;16.90;99.90
17813;DHT22;9030;50.792;8.320;2022-09-09T07:25:55;17.00;99.90
17813;DHT22;9030;50.792;8.320;2022-09-09T07:28:22;17.20;99.90
17813;DHT22;9030;50.792;8.320;2022-09-09T07:30:56;17.10;99.90
17813;DHT22;9030;50.792;8.320;2022-09-09T07:33:25;16.70;99.90
17813;DHT22;9030;50.792;8.320;2022-09-09T07:35:52;16.80;99.90
17813;DHT22;9030;50.792;8.320;2022-09-09T07:38:20;17.00;99.90
17813;DHT22;9030;50.792;8.320;2022-09-09T07:40:48;16.90;99.90
17813;DHT22;9030;50.792;8.320;2022-09-09T07:43:15;16.90;99.90
17813;DHT22;9030;50.792;8.320;2022-09-09T07:45:42;16.80;99.90
17813;DHT22;9030;50.792;8.320;2022-09-09T07:48:09;16.70;99.90
17813;DHT22;9030;50.792;8.320;2022-09-09T07:50:41;16.90;99.90
17813;DHT22;9030;50.792;8.320;2022-09-09T07:53:08;17.10;99.90
17813;DHT22;9030;50.792;8.320;2022-09-09T07:55:34;17.00;99.90
17813;DHT22;9030;50.792;8.320;2022-09-09T07:58:05;17.10;99.90
17813;DHT22;9030;50.792;8.320;2022-09-09T08:00:32;17.70;99.90
17813;DHT22;9030;50.792;8.320;2022-09-09T08:02:59;17.80;99.90
17813;DHT22;9030;50.792;8.320;2022-09-09T08:05:27;18.00;99.90
17813;DHT22;9030;50.792;8.320;2022-09-09T08:07:56;18.30;99.90
17813;DHT22;9030;50.792;8.320;2022-09-09T08:10:22;18.20;99.90
17813;DHT22;9030;50.792;8.320;2022-09-09T08:12:49;18.00;99.90
17813;DHT22;9030;50.792;8.320;2022-09-09T08:15:16;18.00;99.90
17813;DHT22;9030;50.792;8.320;2022-09-09T08:17:43;17.80;99.90
17813;DHT22;9030;50.792;8.320;2022-09-09T08:20:10;17.80;99.90
17813;DHT22;9030;50.792;8.320;2022-09-09T08:22:37;17.70;99.90
17813;DHT22;9030;50.792;8.320;2022-09-09T08:25:06;17.30;99.90
17813;DHT22;9030;50.792;8.320;2022-09-09T08:27:34;17.10;99.90
17813;DHT22;9030;50.792;8.320;2022-09-09T08:30:00;17.50;99.90
17813;DHT22;9030;50.792;8.320;2022-09-09T08:32:27;17.80;99.90
17813;DHT22;9030;50.792;8.320;2022-09-09T08:34:54;17.70;99.90
17813;DHT22;9030;50.792;8.320;2022-09-09T08:37:21;17.60;99.90
17813;DHT22;9030;50.792;8.320;2022-09-09T08:39:48;17.70;99.90
17813;DHT22;9030;50.792;8.320;2022-09-09T08:42:26;17.70;99.90
17813;DHT22;9030;50.792;8.320;2022-09-09T08:45:14;17.70;99.90
17813;DHT22;9030;50.792;8.320;2022-09-09T08:47:54;18.00;99.90
17813;DHT22;9030;50.792;8.320;2022-09-09T08:50:28;18.60;99.90
17813;DHT22;9030;50.792;8.320;2022-09-09T08:53:01;18.50;99.90
17813;DHT22;9030;50.792;8.320;2022-09-09T08:55:37;18.30;99.90
17813;DHT22;9030;50.792;8.320;2022-09-09T08:58:11;18.50;99.90
17813;DHT22;9030;50.792;8.320;2022-09-09T09:00:48;18.70;99.90
17813;DHT22;9030;50.792;8.320;2022-09-09T09:03:24;19.80;99.90
17813;DHT22;9030;50.792;8.320;2022-09-09T09:06:00;20.00;99.90
17813;DHT22;9030;50.792;8.320;2022-09-09T09:08:36;20.00;99.90
17813;DHT22;9030;50.792;8.320;2022-09-09T09:11:06;19.20;99.90
17813;DHT22;9030;50.792;8.320;2022-09-09T09:13:39;18.40;99.90
17813;DHT22;9030;50.792;8.320;2022-09-09T09:16:16;18.70;99.90
17813;DHT22;9030;50.792;8.320;2022-09-09T09:18:44;19.40;99.90
17813;DHT22;9030;50.792;8.320;2022-09-09T09:21:13;19.20;99.90
17813;DHT22;9030;50.792;8.320;2022-09-09T09:23:51;19.70;99.90
17813;DHT22;9030;50.792;8.320;2022-09-09T09:26:21;20.20;99.90
17813;DHT22;9030;50.792;8.320;2022-09-09T09:28:53;19.30;99.90
17813;DHT22;9030;50.792;8.320;2022-09-09T09:31:22;18.80;99.90
17813;DHT22;9030;50.792;8.320;2022-09-09T09:33:52;18.60;99.90
17813;DHT22;9030;50.792;8.320;2022-09-09T09:36:19;18.50;99.90
17813;DHT22;9030;50.792;8.320;2022-09-09T09:38:54;18.40;99.90
17813;DHT22;9030;50.792;8.320;2022-09-09T09:41:32;18.60;99.90
17813;DHT22;9030;50.792;8.320;2022-09-09T09:44:02;18.80;99.90
17813;DHT22;9030;50.792;8.320;2022-09-09T09:46:30;18.80;99.90
17813;DHT22;9030;50.792;8.320;2022-09-09T09:48:58;18.70;99.90
17813;DHT22;9030;50.792;8.320;2022-09-09T09:51:26;18.70;99.90
17813;DHT22;9030;50.792;8.320;2022-09-09T09:53:54;18.70;99.90
17813;DHT22;9030;50.792;8.320;2022-09-09T09:56:31;18.50;99.90
17813;DHT22;9030;50.792;8.320;2022-09-09T09:58:58;18.50;99.90
17813;DHT22;9030;50.792;8.320;2022-09-09T10:01:27;18.80;99.90
17813;DHT22;9030;50.792;8.320;2022-09-09T10:03:58;18.80;99.90
17813;DHT22;9030;50.792;8.320;2022-09-09T10:06:30;18.70;99.90
17813;DHT22;9030;50.792;8.320;2022-09-09T10:08:57;18.70;99.90
17813;DHT22;9030;50.792;8.320;2022-09-09T10:11:40;18.50;99.90
17813;DHT22;9030;50.792;8.320;2022-09-09T10:14:17;18.40;99.90
17813;DHT22;9030;50.792;8.320;2022-09-09T10:16:59;18.90;99.90
17813;DHT22;9030;50.792;8.320;2022-09-09T10:19:33;19.20;99.90
17813;DHT22;9030;50.792;8.320;2022-09-09T10:22:08;19.50;99.90
17813;DHT22;9030;50.792;8.320;2022-09-09T10:24:48;19.60;99.90
17813;DHT22;9030;50.792;8.320;2022-09-09T10:27:22;19.80;99.90
17813;DHT22;9030;50.792;8.320;2022-09-09T10:32:46;19.70;99.90
17813;DHT22;9030;50.792;8.320;2022-09-09T10:35:30;19.60;99.90
17813;DHT22;9030;50.792;8.320;2022-09-09T10:38:13;19.70;99.90
17813;DHT22;9030;50.792;8.320;2022-09-09T10:40:48;20.40;99.90
17813;DHT22;9030;50.792;8.320;2022-09-09T10:46:19;22.10;99.90
17813;DHT22;9030;50.792;8.320;2022-09-09T10:49:04;21.60;99.90
17813;DHT22;9030;50.792;8.320;2022-09-09T10:51:40;20.90;99.90
17813;DHT22;9030;50.792;8.320;2022-09-09T10:54:28;21.20;99.90
17813;DHT22;9030;50.792;8.320;2022-09-09T10:57:01;20.70;99.90
17813;DHT22;9030;50.792;8.320;2022-09-09T10:59:33;20.90;99.90
17813;DHT22;9030;50.792;8.320;2022-09-09T11:02:05;21.20;99.90
17813;DHT22;9030;50.792;8.320;2022-09-09T11:04:43;21.10;99.90
17813;DHT22;9030;50.792;8.320;2022-09-09T11:07:16;20.50;99.90
17813;DHT22;9030;50.792;8.320;2022-09-09T11:09:52;20.50;99.90
17813;DHT22;9030;50.792;8.320;2022-09-09T11:12:21;20.10;99.90
17813;DHT22;9030;50.792;8.320;2022-09-09T11:14:53;20.00;99.90
17813;DHT22;9030;50.792;8.320;2022-09-09T11:17:26;19.90;99.90
17813;DHT22;9030;50.792;8.320;2022-09-09T11:19:55;19.80;99.90
17813;DHT22;9030;50.792;8.320;2022-09-09T11:22:27;19.70;99.90
17813;DHT22;9030;50.792;8.320;2022-09-09T11:24:58;19.80;99.90
17813;DHT22;9030;50.792;8.320;2022-09-09T11:27:29;19.90;99.90
17813;DHT22;9030;50.792;8.320;2022-09-09T11:30:17;20.00;99.90
17813;DHT22;9030;50.792;8.320;2022-09-09T11:33:08;20.70;99.90
17813;DHT22;9030;50.792;8.320;2022-09-09T11:35:53;22.00;99.90
17813;DHT22;9030;50.792;8.320;2022-09-09T11:38:27;21.90;99.90
17813;DHT22;9030;50.792;8.320;2022-09-09T11:40:56;21.60;99.90
17813;DHT22;9030;50.792;8.320;2022-09-09T11:43:28;21.40;99.90
17813;DHT22;9030;50.792;8.320;2022-09-09T11:45:58;21.10;99.90
17813;DHT22;9030;50.792;8.320;2022-09-09T11:48:29;20.60;99.90
17813;DHT22;9030;50.792;8.320;2022-09-09T11:51:01;20.30;99.90
17813;DHT22;9030;50.792;8.320;2022-09-09T11:53:30;19.90;99.90
17813;DHT22;9030;50.792;8.320;2022-09-09T11:56:03;19.90;99.90
17813;DHT22;9030;50.792;8.320;2022-09-09T11:58:36;20.00;99.90
17813;DHT22;9030;50.792;8.320;2022-09-09T12:01:14;20.50;99.90
17813;DHT22;9030;50.792;8.320;2022-09-09T12:03:43;20.10;99.90
17813;DHT22;9030;50.792;8.320;2022-09-09T12:06:15;20.20;99.90
17813;DHT22;9030;50.792;8.320;2022-09-09T12:08:48;20.20;99.90
17813;DHT22;9030;50.792;8.320;2022-09-09T12:11:26;20.70;99.90
17813;DHT22;9030;50.792;8.320;2022-09-09T12:13:54;20.40;99.90
17813;DHT22;9030;50.792;8.320;2022-09-09T12:16:32;20.90;99.90
17813;DHT22;9030;50.792;8.320;2022-09-09T12:19:05;21.00;99.90
17813;DHT22;9030;50.792;8.320;2022-09-09T12:21:40;20.70;99.90
17813;DHT22;9030;50.792;8.320;2022-09-09T12:24:09;20.50;99.90
17813;DHT22;9030;50.792;8.320;2022-09-09T12:26:39;20.80;99.90
17813;DHT22;9030;50.792;8.320;2022-09-09T12:29:18;21.20;99.90
17813;DHT22;9030;50.792;8.320;2022-09-09T12:31:55;21.30;99.90
17813;DHT22;9030;50.792;8.320;2022-09-09T12:34:32;21.10;99.90
17813;DHT22;9030;50.792;8.320;2022-09-09T12:37:06;21.10;99.90
17813;DHT22;9030;50.792;8.320;2022-09-09T12:39:37;21.30;99.90
17813;DHT22;9030;50.792;8.320;2022-09-09T12:42:16;21.00;99.90
17813;DHT22;9030;50.792;8.320;2022-09-09T12:44:51;21.00;99.90
17813;DHT22;9030;50.792;8.320;2022-09-09T12:47:20;20.90;99.90
17813;DHT22;9030;50.792;8.320;2022-09-09T12:49:48;20.60;99.90
17813;DHT22;9030;50.792;8.320;2022-09-09T12:52:21;20.80;99.90
17813;DHT22;9030;50.792;8.320;2022-09-09T12:54:49;21.00;99.90
17813;DHT22;9030;50.792;8.320;2022-09-09T12:57:17;21.00;99.90
17813;DHT22;9030;50.792;8.320;2022-09-09T12:59:44;21.20;99.90
17813;DHT22;9030;50.792;8.320;2022-09-09T13:02:18;21.10;99.90
17813;DHT22;9030;50.792;8.320;2022-09-09T13:04:45;21.10;99.90
17813;DHT22;9030;50.792;8.320;2022-09-09T13:07:13;20.80;99.90
17813;DHT22;9030;50.792;8.320;2022-09-09T13:09:43;20.80;99.90
17813;DHT22;9030;50.792;8.320;2022-09-09T13:12:14;20.90;99.90
17813;DHT22;9030;50.792;8.320;2022-09-09T13:14:44;20.70;99.90
17813;DHT22;9030;50.792;8.320;2022-09-09T13:17:19;20.90;99.90
17813;DHT22;9030;50.792;8.320;2022-09-09T13:19:47;21.10;99.90
17813;DHT22;9030;50.792;8.320;2022-09-09T13:22:21;20.90;99.90
17813;DHT22;9030;50.792;8.320;2022-09-09T13:25:02;20.80;99.90
17813;DHT22;9030;50.792;8.320;2022-09-09T13:27:31;21.20;99.90
17813;DHT22;9030;50.792;8.320;2022-09-09T13:29:59;21.40;99.90
17813;DHT22;9030;50.792;8.320;2022-09-09T13:32:27;21.50;99.90
17813;DHT22;9030;50.792;8.320;2022-09-09T13:34:56;21.00;99.90
17813;DHT22;9030;50.792;8.320;2022-09-09T13:37:26;21.20;99.90
17813;DHT22;9030;50.792;8.320;2022-09-09T13:39:55;21.40;99.90
17813;DHT22;9030;50.792;8.320;2022-09-09T13:42:26;21.50;99.90
17813;DHT22;9030;50.792;8.320;2022-09-09T13:44:55;21.60;99.90
17813;DHT22;9030;50.792;8.320;2022-09-09T13:47:28;21.50;99.90
17813;DHT22;9030;50.792;8.320;2022-09-09T13:49:56;21.60;99.90
17813;DHT22;9030;50.792;8.320;2022-09-09T13:52:23;21.50;99.90
17813;DHT22;9030;50.792;8.320;2022-09-09T13:54:52;21.30;99.90
17813;DHT22;9030;50.792;8.320;2022-09-09T13:57:21;21.80;99.90
17813;DHT22;9030;50.792;8.320;2022-09-09T13:59:50;21.20;99.90
17813;DHT22;9030;50.792;8.320;2022-09-09T14:02:18;20.80;99.90
17813;DHT22;9030;50.792;8.320;2022-09-09T14:04:46;21.00;99.90
17813;DHT22;9030;50.792;8.320;2022-09-09T14:07:17;21.10;99.90
17813;DHT22;9030;50.792;8.320;2022-09-09T14:09:44;21.40;99.90
17813;DHT22;9030;50.792;8.320;2022-09-09T14:12:15;21.80;99.90
17813;DHT22;9030;50.792;8.320;2022-09-09T14:14:42;21.80;99.90
17813;DHT22;9030;50.792;8.320;2022-09-09T14:17:10;22.00;99.90
17813;DHT22;9030;50.792;8.320;2022-09-09T14:19:37;21.60;99.90
17813;DHT22;9030;50.792;8.320;2022-09-09T14:22:04;21.30;99.90
17813;DHT22;9030;50.792;8.320;2022-09-09T14:24:31;21.10;99.90
17813;DHT22;9030;50.792;8.320;2022-09-09T14:26:58;21.00;99.90
17813;DHT22;9030;50.792;8.320;2022-09-09T14:29:25;21.10;99.90
17813;DHT22;9030;50.792;8.320;2022-09-09T14:31:52;21.00;99.90
17813;DHT22;9030;50.792;8.320;2022-09-09T14:34:20;20.70;99.90
17813;DHT22;9030;50.792;8.320;2022-09-09T14:36:46;20.60;99.90
17813;DHT22;9030;50.792;8.320;2022-09-09T14:39:13;20.40;99.90
17813;DHT22;9030;50.792;8.320;2022-09-09T14:41:40;20.50;99.90
17813;DHT22;9030;50.792;8.320;2022-09-09T14:44:07;20.50;99.90
17813;DHT22;9030;50.792;8.320;2022-09-09T14:46:34;20.50;99.90
17813;DHT22;9030;50.792;8.320;2022-09-09T14:49:01;20.50;99.90
17813;DHT22;9030;50.792;8.320;2022-09-09T14:51:29;20.80;99.90
17813;DHT22;9030;50.792;8.320;2022-09-09T14:53:58;20.80;99.90
17813;DHT22;9030;50.792;8.320;2022-09-09T14:56:27;20.80;99.90
17813;DHT22;9030;50.792;8.320;2022-09-09T14:58:56;20.70;99.90
17813;DHT22;9030;50.792;8.320;2022-09-09T15:01:23;20.70;99.90
17813;DHT22;9030;50.792;8.320;2022-09-09T15:03:53;20.50;99.90
17813;DHT22;9030;50.792;8.320;2022-09-09T15:06:22;20.50;99.90
17813;DHT22;9030;50.792;8.320;2022-09-09T15:08:52;20.30;99.90
17813;DHT22;9030;50.792;8.320;2022-09-09T15:11:20;20.20;99.90
17813;DHT22;9030;50.792;8.320;2022-09-09T15:13:51;20.10;99.90
17813;DHT22;9030;50.792;8.320;2022-09-09T15:16:21;19.90;99.90
17813;DHT22;9030;50.792;8.320;2022-09-09T15:18:51;19.80;99.90
17813;DHT22;9030;50.792;8.320;2022-09-09T15:21:21;19.50;99.90
17813;DHT22;9030;50.792;8.320;2022-09-09T15:23:50;19.40;99.90
17813;DHT22;9030;50.792;8.320;2022-09-09T15:26:18;19.40;99.90
17813;DHT22;9030;50.792;8.320;2022-09-09T15:28:46;19.10;99.90
17813;DHT22;9030;50.792;8.320;2022-09-09T15:31:15;19.00;99.90
17813;DHT22;9030;50.792;8.320;2022-09-09T15:33:47;18.70;99.90
17813;DHT22;9030;50.792;8.320;2022-09-09T15:36:15;18.50;99.90
17813;DHT22;9030;50.792;8.320;2022-09-09T15:38:42;18.20;99.90
17813;DHT22;9030;50.792;8.320;2022-09-09T15:41:11;17.70;99.90
17813;DHT22;9030;50.792;8.320;2022-09-09T15:43:38;17.50;99.90
17813;DHT22;9030;50.792;8.320;2022-09-09T15:46:24;17.20;99.90
17813;DHT22;9030;50.792;8.320;2022-09-09T15:48:53;17.00;99.90
17813;DHT22;9030;50.792;8.320;2022-09-09T15:51:21;17.00;99.90
17813;DHT22;9030;50.792;8.320;2022-09-09T15:53:48;17.30;99.90
17813;DHT22;9030;50.792;8.320;2022-09-09T15:56:19;17.00;99.90
17813;DHT22;9030;50.792;8.320;2022-09-09T15:58:46;17.00;99.90
17813;DHT22;9030;50.792;8.320;2022-09-09T16:01:13;17.00;99.90
17813;DHT22;9030;50.792;8.320;2022-09-09T16:03:41;16.40;99.90
17813;DHT22;9030;50.792;8.320;2022-09-09T16:06:11;16.40;99.90
17813;DHT22;9030;50.792;8.320;2022-09-09T16:08:40;16.00;99.90
17813;DHT22;9030;50.792;8.320;2022-09-09T16:11:13;15.70;99.90